createdAt,value
2023-02-27T00:00:19.123Z,101292.63
2023-02-27T00:02:49.805Z,101294.63
2023-02-27T00:05:17.405Z,101299.75
2023-02-27T00:07:44.386Z,101297.50
2023-02-27T00:10:12.722Z,101302.66
2023-02-27T00:12:39.304Z,101296.44
2023-02-27T00:15:06.898Z,101308.44
2023-02-27T00:17:33.429Z,101298.84
2023-02-27T00:20:01.311Z,101304.84
2023-02-27T00:22:27.875Z,101302.56
2023-02-27T00:24:54.420Z,101301.66
2023-02-27T00:27:21.012Z,101295.38
2023-02-27T00:29:47.568Z,101295.81
2023-02-27T00:32:14.317Z,101310.22
2023-02-27T00:34:40.839Z,101301.81
2023-02-27T00:37:08.708Z,101306.34
2023-02-27T00:39:35.344Z,101296.28
2023-02-27T00:42:01.830Z,101308.94
2023-02-27T00:44:28.374Z,101304.00
2023-02-27T00:46:54.917Z,101302.91
2023-02-27T00:49:21.484Z,101295.94
2023-02-27T00:51:48.091Z,101295.09
2023-02-27T00:54:15.910Z,101302.72
2023-02-27T00:56:42.387Z,101303.56
2023-02-27T00:59:08.881Z,101309.78
2023-02-27T01:01:35.465Z,101310.69
2023-02-27T01:04:02.364Z,101305.59
2023-02-27T01:06:28.996Z,101307.59
2023-02-27T01:08:55.527Z,101304.81
2023-02-27T01:11:23.593Z,101302.22
2023-02-27T01:13:50.157Z,101308.16
2023-02-27T01:16:16.849Z,101307.22
2023-02-27T01:18:43.420Z,101307.03
2023-02-27T01:21:09.901Z,101312.06
2023-02-27T01:23:36.562Z,101306.13
2023-02-27T01:26:03.179Z,101311.97
2023-02-27T01:28:31.064Z,101320.53
2023-02-27T01:30:57.662Z,101313.97
2023-02-27T01:33:24.178Z,101314.59
2023-02-27T01:35:50.680Z,101306.69
2023-02-27T01:38:17.217Z,101309.78
2023-02-27T01:40:43.831Z,101315.78
2023-02-27T01:43:14.948Z,101298.69
2023-02-27T01:45:44.141Z,101300.50
2023-02-27T01:48:16.439Z,101294.41
2023-02-27T01:50:48.844Z,101285.59
2023-02-27T01:53:16.732Z,101280.13
2023-02-27T01:55:43.603Z,101277.50
2023-02-27T01:58:12.187Z,101278.75
2023-02-27T02:00:39.085Z,101275.16
2023-02-27T02:03:19.509Z,101277.59
2023-02-27T02:05:47.402Z,101282.28
2023-02-27T02:08:16.949Z,101283.16
2023-02-27T02:10:45.634Z,101278.78
2023-02-27T02:13:12.465Z,101285.53
2023-02-27T02:15:47.111Z,101289.78
2023-02-27T02:18:24.274Z,101290.94
2023-02-27T02:21:10.532Z,101288.16
2023-02-27T02:24:07.445Z,101286.28
2023-02-27T02:26:44.232Z,101281.88
2023-02-27T02:29:41.450Z,101284.16
2023-02-27T02:32:35.892Z,101279.41
2023-02-27T02:35:25.504Z,101276.13
2023-02-27T02:38:20.334Z,101273.00
2023-02-27T02:40:57.262Z,101266.41
2023-02-27T02:43:30.308Z,101265.69
2023-02-27T02:46:04.052Z,101262.91
2023-02-27T02:48:35.219Z,101267.09
2023-02-27T02:51:07.954Z,101271.34
2023-02-27T02:53:42.363Z,101268.38
2023-02-27T02:56:19.569Z,101261.81
2023-02-27T02:58:52.506Z,101264.03
2023-02-27T03:01:25.409Z,101268.69
2023-02-27T03:03:56.136Z,101269.03
2023-02-27T03:06:27.895Z,101263.41
2023-02-27T03:08:58.105Z,101263.03
2023-02-27T03:11:30.047Z,101267.81
2023-02-27T03:14:03.186Z,101266.34
2023-02-27T03:16:33.993Z,101261.56
2023-02-27T03:19:07.600Z,101262.19
2023-02-27T03:21:38.855Z,101268.81
2023-02-27T03:24:10.407Z,101275.31
2023-02-27T03:26:42.603Z,101269.41
2023-02-27T03:29:11.190Z,101269.59
2023-02-27T03:31:44.695Z,101269.28
2023-02-27T03:34:17.606Z,101271.50
2023-02-27T03:36:50.397Z,101261.34
2023-02-27T03:39:24.979Z,101256.09
2023-02-27T03:41:58.559Z,101263.06
2023-02-27T03:44:31.074Z,101260.72
2023-02-27T03:46:57.649Z,101267.09
2023-02-27T03:49:24.313Z,101265.75
2023-02-27T03:51:50.973Z,101271.13
2023-02-27T03:54:21.383Z,101263.19
2023-02-27T03:56:52.850Z,101270.38
2023-02-27T03:59:20.823Z,101262.31
2023-02-27T04:01:48.123Z,101267.22
2023-02-27T04:04:17.593Z,101260.47
2023-02-27T04:06:51.983Z,101267.44
2023-02-27T04:09:28.563Z,101263.81
2023-02-27T04:12:17.961Z,101263.91
2023-02-27T04:14:59.636Z,101262.31
2023-02-27T04:17:28.917Z,101264.66
2023-02-27T04:20:19.291Z,101255.44
2023-02-27T04:22:49.209Z,101269.41
2023-02-27T04:25:31.756Z,101271.97
2023-02-27T04:28:07.633Z,101263.81
2023-02-27T04:30:45.463Z,101264.03
2023-02-27T04:33:19.981Z,101259.97
2023-02-27T04:35:52.668Z,101255.22
2023-02-27T04:38:23.184Z,101258.88
2023-02-27T04:40:55.658Z,101258.63
2023-02-27T04:43:24.671Z,101262.09
2023-02-27T04:45:54.684Z,101268.09
2023-02-27T04:48:25.112Z,101265.38
2023-02-27T04:50:54.772Z,101274.81
2023-02-27T04:53:26.150Z,101270.50
2023-02-27T04:55:55.639Z,101265.88
2023-02-27T04:58:27.245Z,101258.03
2023-02-27T05:01:00.429Z,101259.63
2023-02-27T05:03:32.121Z,101265.88
2023-02-27T05:06:01.321Z,101265.25
2023-02-27T05:08:34.811Z,101264.41
2023-02-27T05:11:07.573Z,101266.34
2023-02-27T05:13:39.888Z,101266.47
2023-02-27T05:16:14.965Z,101268.06
2023-02-27T05:18:41.526Z,101261.34
2023-02-27T05:21:20.817Z,101259.84
2023-02-27T05:23:55.999Z,101259.13
2023-02-27T05:26:32.265Z,101258.88
2023-02-27T05:29:05.557Z,101264.31
2023-02-27T05:31:41.373Z,101267.72
2023-02-27T05:34:13.001Z,101262.59
2023-02-27T05:36:45.716Z,101276.50
2023-02-27T05:39:14.626Z,101279.22
2023-02-27T05:41:46.659Z,101282.00
2023-02-27T05:44:17.163Z,101265.97
2023-02-27T05:46:52.699Z,101277.72
2023-02-27T05:49:24.289Z,101272.59
2023-02-27T05:51:54.919Z,101280.69
2023-02-27T05:54:29.773Z,101283.84
2023-02-27T05:56:58.955Z,101281.75
2023-02-27T05:59:32.634Z,101292.16
2023-02-27T06:02:00.698Z,101295.94
2023-02-27T06:04:27.312Z,101287.13
2023-02-27T06:06:54.175Z,101286.53
2023-02-27T06:09:20.775Z,101289.81
2023-02-27T06:11:47.323Z,101292.16
2023-02-27T06:14:13.977Z,101292.78
2023-02-27T06:16:41.090Z,101304.13
2023-02-27T06:19:08.931Z,101289.81
2023-02-27T06:21:35.460Z,101283.69
2023-02-27T06:24:01.980Z,101289.59
2023-02-27T06:26:28.815Z,101288.50
2023-02-27T06:28:55.497Z,101292.41
2023-02-27T06:31:22.025Z,101300.47
2023-02-27T06:33:48.753Z,101292.28
2023-02-27T06:36:16.573Z,101290.47
2023-02-27T06:38:43.366Z,101299.25
2023-02-27T06:41:10.001Z,101306.59
2023-02-27T06:43:36.566Z,101311.25
2023-02-27T06:46:03.456Z,101309.53
2023-02-27T06:48:29.999Z,101309.53
2023-02-27T06:50:57.081Z,101309.75
2023-02-27T06:53:25.524Z,101313.44
2023-02-27T06:55:52.328Z,101311.75
2023-02-27T06:58:18.848Z,101316.53
2023-02-27T07:00:45.530Z,101311.38
2023-02-27T07:03:13.021Z,101324.94
2023-02-27T07:05:40.709Z,101323.34
2023-02-27T07:08:08.053Z,101332.53
2023-02-27T07:10:36.090Z,101326.88
2023-02-27T07:13:02.854Z,101333.47
2023-02-27T07:15:30.748Z,101333.88
2023-02-27T07:17:57.599Z,101336.19
2023-02-27T07:20:24.362Z,101335.47
2023-02-27T07:22:51.226Z,101338.53
2023-02-27T07:25:17.987Z,101343.81
2023-02-27T07:27:47.737Z,101350.78
2023-02-27T07:30:15.397Z,101348.09
2023-02-27T07:32:42.711Z,101349.91
2023-02-27T07:35:21.129Z,101348.69
2023-02-27T07:37:48.373Z,101357.03
2023-02-27T07:40:15.492Z,101350.50
2023-02-27T07:42:42.155Z,101354.81
2023-02-27T07:45:13.131Z,101361.44
2023-02-27T07:47:40.425Z,101360.69
2023-02-27T07:50:10.116Z,101362.66
2023-02-27T07:52:36.825Z,101359.31
2023-02-27T07:55:05.664Z,101359.09
2023-02-27T07:57:32.883Z,101368.78
2023-02-27T07:59:59.820Z,101372.44
2023-02-27T08:02:27.997Z,101367.56
2023-02-27T08:04:55.144Z,101371.78
2023-02-27T08:07:22.588Z,101377.09
2023-02-27T08:09:49.524Z,101377.63
2023-02-27T08:12:17.315Z,101363.91
2023-02-27T08:14:45.130Z,101369.00
2023-02-27T08:17:12.000Z,101367.03
2023-02-27T08:19:40.273Z,101369.00
2023-02-27T08:22:07.487Z,101381.38
2023-02-27T08:24:46.948Z,101376.69
2023-02-27T08:27:13.663Z,101375.94
2023-02-27T08:29:41.216Z,101391.28
2023-02-27T08:32:08.354Z,101379.53
2023-02-27T08:34:35.343Z,101378.81
2023-02-27T08:37:03.495Z,101380.13
2023-02-27T08:39:32.809Z,101377.56
2023-02-27T08:41:59.628Z,101373.63
2023-02-27T08:44:26.306Z,101371.63
2023-02-27T08:46:55.056Z,101376.66
2023-02-27T08:49:21.801Z,101379.75
2023-02-27T08:51:48.529Z,101383.69
2023-02-27T08:54:17.302Z,101384.44
2023-02-27T08:56:43.965Z,101378.34
2023-02-27T08:59:10.682Z,101387.34
2023-02-27T09:01:37.368Z,101386.16
2023-02-27T09:04:05.166Z,101397.53
2023-02-27T09:06:33.088Z,101399.59
2023-02-27T09:09:00.267Z,101396.03
2023-02-27T09:11:28.829Z,101403.00
2023-02-27T09:13:55.848Z,101404.41
2023-02-27T09:16:23.387Z,101394.69
2023-02-27T09:18:50.618Z,101412.00
2023-02-27T09:21:17.472Z,101403.50
2023-02-27T09:23:44.284Z,101409.88
2023-02-27T09:26:10.991Z,101407.91
2023-02-27T09:28:40.286Z,101404.41
2023-02-27T09:31:08.708Z,101408.59
2023-02-27T09:33:36.576Z,101404.63
2023-02-27T09:36:04.927Z,101415.53
2023-02-27T09:38:31.980Z,101416.97
2023-02-27T09:40:58.704Z,101413.28
2023-02-27T09:43:33.292Z,101423.00
2023-02-27T09:46:02.986Z,101423.50
2023-02-27T09:48:33.816Z,101426.13
2023-02-27T09:51:01.407Z,101424.06
2023-02-27T09:53:31.937Z,101422.22
2023-02-27T09:56:06.195Z,101415.25
2023-02-27T09:58:41.262Z,101426.97
2023-02-27T10:01:15.749Z,101429.09
2023-02-27T10:03:59.811Z,101429.69
2023-02-27T10:06:33.906Z,101422.75
2023-02-27T10:09:10.681Z,101428.97
2023-02-27T10:11:49.518Z,101418.75
2023-02-27T10:14:25.651Z,101429.41
2023-02-27T10:16:58.356Z,101446.50
2023-02-27T10:19:30.746Z,101432.22
2023-02-27T10:21:59.535Z,101440.09
2023-02-27T10:24:29.498Z,101448.25
2023-02-27T10:26:57.942Z,101454.06
2023-02-27T10:29:29.725Z,101452.88
2023-02-27T10:32:02.536Z,101446.94
2023-02-27T10:34:31.257Z,101447.38
2023-02-27T10:37:01.331Z,101449.84
2023-02-27T10:39:29.410Z,101459.84
2023-02-27T10:42:02.544Z,101458.19
2023-02-27T10:44:29.130Z,101463.44
2023-02-27T10:46:55.711Z,101458.78
2023-02-27T10:49:24.037Z,101456.16
2023-02-27T10:52:06.177Z,101453.97
2023-02-27T10:54:32.819Z,101445.69
2023-02-27T10:57:02.089Z,101445.25
2023-02-27T10:59:31.611Z,101439.44
2023-02-27T11:02:00.913Z,101442.91
2023-02-27T11:04:33.029Z,101438.44
2023-02-27T11:07:03.102Z,101429.69
2023-02-27T11:09:32.049Z,101437.69
2023-02-27T11:12:12.585Z,101422.50
2023-02-27T11:14:49.009Z,101423.53
2023-02-27T11:17:22.658Z,101422.69
2023-02-27T11:19:50.596Z,101410.72
2023-02-27T11:22:19.940Z,101415.69
2023-02-27T11:24:46.776Z,101407.75
2023-02-27T11:27:22.915Z,101403.47
2023-02-27T11:29:57.486Z,101412.63
2023-02-27T11:32:26.329Z,101407.94
2023-02-27T11:34:54.273Z,101406.97
2023-02-27T11:37:28.176Z,101395.06
2023-02-27T11:40:00.445Z,101393.25
2023-02-27T11:42:31.228Z,101380.41
2023-02-27T11:45:01.452Z,101379.84
2023-02-27T11:47:32.185Z,101376.09
2023-02-27T11:50:13.942Z,101380.91
2023-02-27T11:52:47.824Z,101380.00
2023-02-27T11:55:15.295Z,101373.19
2023-02-27T11:57:44.286Z,101371.72
2023-02-27T12:00:19.985Z,101381.25
2023-02-27T12:02:54.662Z,101398.59
2023-02-27T12:05:27.645Z,101373.53
2023-02-27T12:08:00.512Z,101377.31
2023-02-27T12:10:30.638Z,101358.63
2023-02-27T12:13:02.535Z,101362.47
2023-02-27T12:15:32.913Z,101359.91
2023-02-27T12:18:07.397Z,101358.84
2023-02-27T12:20:44.150Z,101359.19
2023-02-27T12:23:19.408Z,101348.69
2023-02-27T12:25:50.521Z,101342.28
2023-02-27T12:28:35.728Z,101332.38
2023-02-27T12:31:28.862Z,101337.25
2023-02-27T12:34:00.950Z,101334.06
2023-02-27T12:36:28.834Z,101325.28
2023-02-27T12:38:55.625Z,101318.00
2023-02-27T12:41:33.635Z,101313.59
2023-02-27T12:44:15.254Z,101311.53
2023-02-27T12:46:50.575Z,101309.16
2023-02-27T12:49:28.489Z,101318.44
2023-02-27T12:52:11.929Z,101308.75
2023-02-27T12:54:46.842Z,101304.91
2023-02-27T12:57:26.312Z,101298.56
2023-02-27T13:00:01.305Z,101296.31
2023-02-27T13:02:44.295Z,101292.84
2023-02-27T13:05:28.321Z,101287.75
2023-02-27T13:08:05.822Z,101286.97
2023-02-27T13:10:39.848Z,101280.00
2023-02-27T13:13:16.132Z,101282.59
2023-02-27T13:15:50.549Z,101292.25
2023-02-27T13:18:30.811Z,101292.22
2023-02-27T13:21:03.770Z,101284.16
2023-02-27T13:23:40.617Z,101289.44
2023-02-27T13:26:16.929Z,101283.44
2023-02-27T13:28:43.957Z,101296.34
2023-02-27T13:31:27.035Z,101283.53
2023-02-27T13:33:59.618Z,101301.66
2023-02-27T13:36:32.958Z,101293.50
2023-02-27T13:39:01.090Z,101300.31
2023-02-27T13:41:37.753Z,101297.44
2023-02-27T13:44:34.011Z,101295.75
2023-02-27T13:47:30.288Z,101280.53
2023-02-27T13:49:57.587Z,101287.53
2023-02-27T13:52:28.715Z,101288.91
2023-02-27T13:55:02.721Z,101283.78
2023-02-27T13:57:34.458Z,101283.09
2023-02-27T14:00:04.845Z,101278.50
2023-02-27T14:02:44.138Z,101293.50
2023-02-27T14:05:29.921Z,101281.06
2023-02-27T14:08:05.334Z,101282.28
2023-02-27T14:10:33.736Z,101270.78
2023-02-27T14:13:01.350Z,101278.31
2023-02-27T14:15:47.995Z,101281.28
2023-02-27T14:18:39.250Z,101283.88
2023-02-27T14:21:05.841Z,101277.78
2023-02-27T14:23:32.588Z,101280.44
2023-02-27T14:26:12.121Z,101271.66
2023-02-27T14:28:47.670Z,101269.28
2023-02-27T14:31:22.356Z,101267.31
2023-02-27T14:33:51.972Z,101265.19
2023-02-27T14:36:22.537Z,101267.31
2023-02-27T14:38:50.884Z,101276.34
2023-02-27T14:41:30.071Z,101268.22
2023-02-27T14:43:58.582Z,101271.66
2023-02-27T14:46:29.430Z,101276.91
2023-02-27T14:48:58.428Z,101274.28
2023-02-27T14:51:26.565Z,101276.59
2023-02-27T14:54:03.392Z,101271.75
2023-02-27T14:56:32.071Z,101274.13
2023-02-27T14:59:04.203Z,101261.78
2023-02-27T15:01:36.091Z,101269.91
2023-02-27T15:04:04.414Z,101271.44
2023-02-27T15:06:36.828Z,101265.44
2023-02-27T15:09:04.487Z,101267.13
2023-02-27T15:11:32.812Z,101264.81
2023-02-27T15:14:01.618Z,101270.25
2023-02-27T15:16:32.907Z,101266.78
2023-02-27T15:19:02.595Z,101265.50
2023-02-27T15:21:32.365Z,101271.22
2023-02-27T15:24:01.387Z,101261.47
2023-02-27T15:26:30.413Z,101261.13
2023-02-27T15:28:58.919Z,101260.28
2023-02-27T15:31:27.691Z,101261.88
2023-02-27T15:33:55.514Z,101270.25
2023-02-27T15:36:25.780Z,101288.38
2023-02-27T15:39:14.784Z,101267.69
2023-02-27T15:41:42.071Z,101276.69
2023-02-27T15:44:12.752Z,101269.97
2023-02-27T15:46:39.735Z,101279.06
2023-02-27T15:49:06.424Z,101274.69
2023-02-27T15:51:34.236Z,101280.00
2023-02-27T15:54:00.764Z,101268.84
2023-02-27T15:56:32.481Z,101271.38
2023-02-27T15:59:01.247Z,101280.56
2023-02-27T16:01:31.651Z,101273.63
2023-02-27T16:03:59.982Z,101274.34
2023-02-27T16:06:29.362Z,101274.84
2023-02-27T16:08:58.969Z,101279.25
2023-02-27T16:11:28.131Z,101269.38
2023-02-27T16:13:55.696Z,101266.81
2023-02-27T16:16:26.965Z,101270.00
2023-02-27T16:18:57.041Z,101275.44
2023-02-27T16:21:24.967Z,101287.53
2023-02-27T16:23:52.370Z,101266.38
2023-02-27T16:26:26.555Z,101265.75
2023-02-27T16:28:55.478Z,101270.13
2023-02-27T16:31:26.508Z,101269.28
2023-02-27T16:33:56.047Z,101279.78
2023-02-27T16:36:24.836Z,101273.22
2023-02-27T16:38:51.414Z,101289.44
2023-02-27T16:41:21.047Z,101288.81
2023-02-27T16:43:48.681Z,101281.97
2023-02-27T16:46:16.978Z,101284.38
2023-02-27T16:48:43.480Z,101290.38
2023-02-27T16:51:16.360Z,101287.16
2023-02-27T16:53:43.032Z,101289.44
2023-02-27T16:56:11.075Z,101282.75
2023-02-27T16:58:37.623Z,101292.19
2023-02-27T17:01:04.458Z,101294.13
2023-02-27T17:03:31.127Z,101304.56
2023-02-27T17:05:57.611Z,101293.69
2023-02-27T17:08:25.909Z,101300.53
2023-02-27T17:10:53.526Z,101294.88
2023-02-27T17:13:20.132Z,101308.31
2023-02-27T17:15:46.712Z,101308.75
2023-02-27T17:18:13.366Z,101313.38
2023-02-27T17:20:39.852Z,101313.38
2023-02-27T17:23:09.344Z,101312.63
2023-02-27T17:25:37.221Z,101313.25
2023-02-27T17:28:04.111Z,101317.81
2023-02-27T17:30:30.662Z,101312.81
2023-02-27T17:32:59.418Z,101318.81
2023-02-27T17:35:26.967Z,101315.63
2023-02-27T17:37:53.526Z,101324.72
2023-02-27T17:40:20.028Z,101324.28
2023-02-27T17:42:47.974Z,101323.88
2023-02-27T17:45:14.581Z,101328.69
2023-02-27T17:47:41.149Z,101335.66
2023-02-27T17:50:08.133Z,101332.34
2023-02-27T17:52:35.719Z,101344.13
2023-02-27T17:55:02.306Z,101346.50
2023-02-27T17:57:28.960Z,101345.44
2023-02-27T17:59:56.738Z,101343.16
2023-02-27T18:02:23.300Z,101353.03
2023-02-27T18:04:50.008Z,101351.47
2023-02-27T18:07:16.638Z,101357.16
2023-02-27T18:09:43.324Z,101354.25
2023-02-27T18:12:09.821Z,101350.41
2023-02-27T18:14:36.312Z,101358.78
2023-02-27T18:17:04.322Z,101366.91
2023-02-27T18:19:32.551Z,101363.50
2023-02-27T18:21:59.154Z,101371.84
2023-02-27T18:24:25.696Z,101371.44
2023-02-27T18:26:52.173Z,101380.47
2023-02-27T18:29:18.805Z,101378.94
2023-02-27T18:31:47.240Z,101374.13
2023-02-27T18:34:15.076Z,101377.88
2023-02-27T18:36:42.036Z,101389.44
2023-02-27T18:39:09.116Z,101386.22
2023-02-27T18:41:35.722Z,101393.19
2023-02-27T18:44:02.578Z,101394.28
2023-02-27T18:46:29.582Z,101400.81
2023-02-27T18:48:56.624Z,101401.03
2023-02-27T18:51:25.512Z,101402.09
2023-02-27T18:53:52.041Z,101411.34
2023-02-27T18:56:20.948Z,101410.16
2023-02-27T18:58:47.510Z,101414.38
2023-02-27T19:01:19.837Z,101421.00
2023-02-27T19:03:46.472Z,101411.69
2023-02-27T19:06:13.042Z,101416.94
2023-02-27T19:08:41.524Z,101411.56
2023-02-27T19:11:08.658Z,101414.69
2023-02-27T19:13:35.300Z,101418.22
2023-02-27T19:16:03.076Z,101424.00
2023-02-27T19:18:30.104Z,101433.00
2023-02-27T19:20:57.485Z,101436.47
2023-02-27T19:23:24.098Z,101439.69
2023-02-27T19:26:00.674Z,101439.47
2023-02-27T19:28:27.464Z,101442.28
2023-02-27T19:30:54.577Z,101445.47
2023-02-27T19:33:21.374Z,101438.69
2023-02-27T19:35:47.923Z,101445.69
2023-02-27T19:38:14.641Z,101441.81
2023-02-27T19:40:41.417Z,101440.88
2023-02-27T19:43:09.709Z,101450.00
2023-02-27T19:45:40.489Z,101450.19
2023-02-27T19:48:07.852Z,101457.06
2023-02-27T19:50:34.367Z,101455.34
2023-02-27T19:53:00.845Z,101458.69
2023-02-27T19:55:27.540Z,101460.94
2023-02-27T19:57:54.062Z,101465.00
2023-02-27T20:00:22.632Z,101459.66
2023-02-27T20:02:49.173Z,101463.31
2023-02-27T20:05:15.843Z,101468.88
2023-02-27T20:07:42.356Z,101472.22
2023-02-27T20:10:10.209Z,101463.19
2023-02-27T20:12:36.829Z,101460.50
2023-02-27T20:15:03.824Z,101455.47
2023-02-27T20:17:31.835Z,101468.13
2023-02-27T20:19:58.395Z,101475.13
2023-02-27T20:22:24.924Z,101477.38
2023-02-27T20:24:51.461Z,101475.44
2023-02-27T20:27:18.167Z,101476.81
2023-02-27T20:29:44.737Z,101477.78
2023-02-27T20:32:11.542Z,101474.25
2023-02-27T20:34:39.634Z,101473.91
2023-02-27T20:37:06.279Z,101476.19
2023-02-27T20:39:32.811Z,101477.56
2023-02-27T20:41:59.309Z,101470.59
2023-02-27T20:44:25.844Z,101479.06
2023-02-27T20:46:52.502Z,101477.91
2023-02-27T20:49:19.678Z,101477.69
2023-02-27T20:51:48.013Z,101480.06
2023-02-27T20:54:16.271Z,101474.78
2023-02-27T20:56:43.403Z,101482.31
2023-02-27T20:59:13.384Z,101478.44
2023-02-27T21:01:41.093Z,101490.47
2023-02-27T21:04:08.128Z,101482.75
2023-02-27T21:06:35.341Z,101487.13
2023-02-27T21:09:06.483Z,101481.25
2023-02-27T21:11:34.273Z,101484.16
2023-02-27T21:14:04.229Z,101488.84
2023-02-27T21:16:31.165Z,101489.19
2023-02-27T21:18:57.858Z,101484.69
2023-02-27T21:21:27.492Z,101485.94
2023-02-27T21:23:55.267Z,101492.41
2023-02-27T21:26:25.265Z,101480.56
2023-02-27T21:28:52.726Z,101492.50
2023-02-27T21:31:22.031Z,101478.88
2023-02-27T21:33:49.058Z,101496.59
2023-02-27T21:36:16.106Z,101496.56
2023-02-27T21:38:42.796Z,101494.66
2023-02-27T21:41:11.858Z,101499.94
2023-02-27T21:43:40.158Z,101500.34
2023-02-27T21:46:07.789Z,101502.38
2023-02-27T21:48:34.362Z,101503.56
2023-02-27T21:51:01.740Z,101509.59
2023-02-27T21:53:28.782Z,101502.94
2023-02-27T21:55:55.511Z,101510.88
2023-02-27T21:58:22.162Z,101506.47
2023-02-27T22:00:50.471Z,101511.75
2023-02-27T22:03:17.548Z,101514.31
2023-02-27T22:05:44.351Z,101514.19
2023-02-27T22:08:11.076Z,101513.25
2023-02-27T22:10:38.332Z,101516.38
2023-02-27T22:13:05.049Z,101515.59
2023-02-27T22:15:31.844Z,101516.56
2023-02-27T22:17:59.881Z,101517.53
2023-02-27T22:20:26.440Z,101518.63
2023-02-27T22:22:53.082Z,101524.19
2023-02-27T22:25:19.588Z,101523.22
2023-02-27T22:27:46.172Z,101524.50
2023-02-27T22:30:13.736Z,101520.97
2023-02-27T22:32:40.637Z,101526.91
2023-02-27T22:35:08.913Z,101524.28
2023-02-27T22:37:35.446Z,101527.84
2023-02-27T22:40:02.001Z,101533.13
2023-02-27T22:42:28.511Z,101525.59
2023-02-27T22:44:55.050Z,101535.44
2023-02-27T22:47:21.593Z,101535.47
2023-02-27T22:49:50.263Z,101534.50
2023-02-27T22:52:19.121Z,101537.19
2023-02-27T22:54:45.809Z,101535.94
2023-02-27T22:57:12.426Z,101539.59
2023-02-27T22:59:39.065Z,101534.50
2023-02-27T23:02:05.604Z,101538.94
2023-02-27T23:04:32.110Z,101535.16
2023-02-27T23:06:58.618Z,101536.03
2023-02-27T23:09:26.611Z,101539.13
2023-02-27T23:11:53.215Z,101528.81
2023-02-27T23:14:20.616Z,101535.28
2023-02-27T23:16:47.201Z,101536.66
2023-02-27T23:19:16.011Z,101534.41
2023-02-27T23:21:42.670Z,101534.09
2023-02-27T23:24:10.922Z,101529.94
2023-02-27T23:26:40.357Z,101528.63
2023-02-27T23:29:07.655Z,101529.03
2023-02-27T23:31:35.666Z,101532.06
2023-02-27T23:34:03.218Z,101529.50
2023-02-27T23:36:29.760Z,101520.66
2023-02-27T23:38:58.272Z,101528.72
2023-02-27T23:41:25.604Z,101528.72
2023-02-27T23:43:54.323Z,101533.34
2023-02-27T23:46:21.284Z,101532.16
2023-02-27T23:48:48.442Z,101540.22
2023-02-27T23:51:15.342Z,101540.84
2023-02-27T23:53:42.832Z,101539.47
2023-02-27T23:56:14.628Z,101535.38
2023-02-27T23:58:41.244Z,101542.47
